sensor_id;sensor_type;location;lat;lon;timestamp;pressure;altitude;pressure_sealevel;temperature;humidity
63321;BME280;49449;48.800;9.534;2023-02-11T00:00:38;100619.28;;;-0.16;36.64
63321;BME280;49449;48.800;9.534;2023-02-11T00:03:06;100627.84;;;-0.13;36.47
63321;BME280;49449;48.800;9.534;2023-02-11T00:05:33;100627.00;;;-0.14;36.64
63321;BME280;49449;48.800;9.534;2023-02-11T00:08:01;100624.63;;;-0.17;36.90
63321;BME280;49449;48.800;9.534;2023-02-11T00:10:29;100627.22;;;-0.17;36.76
63321;BME280;49449;48.800;9.534;2023-02-11T00:12:57;100629.69;;;-0.16;36.32
63321;BME280;49449;48.800;9.534;2023-02-11T00:15:24;100628.97;;;-0.18;36.30
63321;BME280;49449;48.800;9.534;2023-02-11T00:17:54;100629.31;;;-0.22;36.57
63321;BME280;49449;48.800;9.534;2023-02-11T00:20:21;100623.81;;;-0.30;36.18
63321;BME280;49449;48.800;9.534;2023-02-11T00:22:49;100627.47;;;-0.33;36.77
63321;BME280;49449;48.800;9.534;2023-02-11T00:25:17;100619.53;;;-0.31;36.84
63321;BME280;49449;48.800;9.534;2023-02-11T00:27:44;100613.22;;;-0.27;36.89
63321;BME280;49449;48.800;9.534;2023-02-11T00:30:12;100608.22;;;-0.30;37.18
63321;BME280;49449;48.800;9.534;2023-02-11T00:32:40;100607.28;;;-0.29;37.56
63321;BME280;49449;48.800;9.534;2023-02-11T00:35:10;100609.88;;;-0.29;37.91
63321;BME280;49449;48.800;9.534;2023-02-11T00:37:37;100611.44;;;-0.27;38.19
63321;BME280;49449;48.800;9.534;2023-02-11T00:40:06;100611.44;;;-0.27;37.17
63321;BME280;49449;48.800;9.534;2023-02-11T00:42:34;100620.91;;;-0.26;37.21
63321;BME280;49449;48.800;9.534;2023-02-11T00:45:03;100614.75;;;-0.25;37.10
63321;BME280;49449;48.800;9.534;2023-02-11T00:47:31;100616.41;;;-0.24;37.29
63321;BME280;49449;48.800;9.534;2023-02-11T00:49:58;100608.94;;;-0.28;37.34
63321;BME280;49449;48.800;9.534;2023-02-11T00:52:28;100601.03;;;-0.27;36.75
63321;BME280;49449;48.800;9.534;2023-02-11T00:54:55;100594.16;;;-0.28;37.46
63321;BME280;49449;48.800;9.534;2023-02-11T00:57:23;100601.97;;;-0.28;37.50
63321;BME280;49449;48.800;9.534;2023-02-11T00:59:51;100600.22;;;-0.27;37.70
63321;BME280;49449;48.800;9.534;2023-02-11T01:02:18;100610.59;;;-0.27;37.45
63321;BME280;49449;48.800;9.534;2023-02-11T01:04:46;100602.91;;;-0.29;36.89
63321;BME280;49449;48.800;9.534;2023-02-11T01:07:15;100599.69;;;-0.32;36.25
63321;BME280;49449;48.800;9.534;2023-02-11T01:09:44;100593.03;;;-0.37;37.33
63321;BME280;49449;48.800;9.534;2023-02-11T01:12:11;100577.69;;;-0.40;36.80
63321;BME280;49449;48.800;9.534;2023-02-11T01:14:39;100577.16;;;-0.45;36.82
63321;BME280;49449;48.800;9.534;2023-02-11T01:17:07;100571.47;;;-0.50;37.55
63321;BME280;49449;48.800;9.534;2023-02-11T01:19:35;100563.66;;;-0.50;37.45
63321;BME280;49449;48.800;9.534;2023-02-11T01:22:04;100560.88;;;-0.47;37.76
63321;BME280;49449;48.800;9.534;2023-02-11T01:24:32;100556.41;;;-0.45;37.63
63321;BME280;49449;48.800;9.534;2023-02-11T01:27:01;100551.00;;;-0.42;36.85
63321;BME280;49449;48.800;9.534;2023-02-11T01:29:29;100546.72;;;-0.43;36.80
63321;BME280;49449;48.800;9.534;2023-02-11T01:31:56;100553.47;;;-0.40;37.79
63321;BME280;49449;48.800;9.534;2023-02-11T01:34:24;100550.88;;;-0.40;37.77
63321;BME280;49449;48.800;9.534;2023-02-11T01:36:56;100552.75;;;-0.42;37.24
63321;BME280;49449;48.800;9.534;2023-02-11T01:39:23;100556.41;;;-0.45;37.38
63321;BME280;49449;48.800;9.534;2023-02-11T01:41:51;100555.78;;;-0.48;37.72
63321;BME280;49449;48.800;9.534;2023-02-11T01:44:23;100558.47;;;-0.50;36.90
63321;BME280;49449;48.800;9.534;2023-02-11T01:46:51;100578.19;;;-0.47;38.09
63321;BME280;49449;48.800;9.534;2023-02-11T01:49:21;100572.06;;;-0.46;37.33
63321;BME280;49449;48.800;9.534;2023-02-11T01:51:55;100577.19;;;-0.58;36.35
63321;BME280;49449;48.800;9.534;2023-02-11T01:54:27;100572.09;;;-0.59;36.51
63321;BME280;49449;48.800;9.534;2023-02-11T01:57:17;100574.06;;;-0.63;36.00
63321;BME280;49449;48.800;9.534;2023-02-11T01:59:56;100571.06;;;-0.82;36.24
63321;BME280;49449;48.800;9.534;2023-02-11T02:02:30;100567.22;;;-0.89;36.80
63321;BME280;49449;48.800;9.534;2023-02-11T02:05:03;100562.66;;;-0.86;36.51
63321;BME280;49449;48.800;9.534;2023-02-11T02:07:36;100554.25;;;-0.89;36.24
63321;BME280;49449;48.800;9.534;2023-02-11T02:10:11;100546.53;;;-1.04;36.35
63321;BME280;49449;48.800;9.534;2023-02-11T02:12:40;100545.53;;;-1.01;36.75
63321;BME280;49449;48.800;9.534;2023-02-11T02:15:28;100540.78;;;-1.09;37.47
63321;BME280;49449;48.800;9.534;2023-02-11T02:18:07;100539.38;;;-1.00;37.17
63321;BME280;49449;48.800;9.534;2023-02-11T02:21:07;100542.28;;;-0.92;37.99
63321;BME280;49449;48.800;9.534;2023-02-11T02:24:13;100538.97;;;-0.81;37.96
63321;BME280;49449;48.800;9.534;2023-02-11T02:27:02;100545.63;;;-0.77;37.94
63321;BME280;49449;48.800;9.534;2023-02-11T02:33:05;100541.88;;;-0.73;38.39
63321;BME280;49449;48.800;9.534;2023-02-11T02:35:54;100541.56;;;-0.68;37.81
63321;BME280;49449;48.800;9.534;2023-02-11T02:38:29;100533.56;;;-0.65;37.66
63321;BME280;49449;48.800;9.534;2023-02-11T02:41:01;100528.91;;;-0.73;37.44
63321;BME280;49449;48.800;9.534;2023-02-11T02:43:31;100518.81;;;-0.78;36.98
63321;BME280;49449;48.800;9.534;2023-02-11T02:46:11;100494.03;;;-0.82;37.56
63321;BME280;49449;48.800;9.534;2023-02-11T02:48:40;100494.19;;;-0.72;37.49
63321;BME280;49449;48.800;9.534;2023-02-11T02:57:19;100489.84;;;-0.59;37.77
63321;BME280;49449;48.800;9.534;2023-02-11T03:00:03;100490.34;;;-0.53;37.90
63321;BME280;49449;48.800;9.534;2023-02-11T03:02:35;100485.75;;;-0.50;37.70
63321;BME280;49449;48.800;9.534;2023-02-11T03:05:10;100484.94;;;-0.50;41.59
63321;BME280;49449;48.800;9.534;2023-02-11T03:07:47;100491.56;;;-0.46;39.82
63321;BME280;49449;48.800;9.534;2023-02-11T03:10:21;100492.38;;;-0.46;39.49
63321;BME280;49449;48.800;9.534;2023-02-11T03:12:52;100502.38;;;-0.40;38.87
63321;BME280;49449;48.800;9.534;2023-02-11T03:15:23;100493.63;;;-0.39;39.00
63321;BME280;49449;48.800;9.534;2023-02-11T03:17:55;100488.94;;;-0.33;38.18
63321;BME280;49449;48.800;9.534;2023-02-11T03:20:27;100480.63;;;-0.39;38.03
63321;BME280;49449;48.800;9.534;2023-02-11T03:23:06;100475.13;;;-0.34;37.86
63321;BME280;49449;48.800;9.534;2023-02-11T03:25:38;100481.34;;;-0.37;38.33
63321;BME280;49449;48.800;9.534;2023-02-11T03:28:13;100478.88;;;-0.38;37.86
63321;BME280;49449;48.800;9.534;2023-02-11T03:30:45;100471.59;;;-0.33;37.64
63321;BME280;49449;48.800;9.534;2023-02-11T03:33:19;100474.06;;;-0.31;38.11
63321;BME280;49449;48.800;9.534;2023-02-11T03:35:53;100474.91;;;-0.31;38.29
63321;BME280;49449;48.800;9.534;2023-02-11T03:38:26;100478.94;;;-0.27;37.65
63321;BME280;49449;48.800;9.534;2023-02-11T03:40:56;100490.25;;;-0.28;38.07
63321;BME280;49449;48.800;9.534;2023-02-11T03:43:29;100485.66;;;-0.24;38.49
63321;BME280;49449;48.800;9.534;2023-02-11T03:46:00;100486.41;;;-0.22;37.69
63321;BME280;49449;48.800;9.534;2023-02-11T03:48:30;100489.00;;;-0.22;38.41
63321;BME280;49449;48.800;9.534;2023-02-11T03:51:04;100488.06;;;-0.21;37.60
63321;BME280;49449;48.800;9.534;2023-02-11T03:53:34;100493.97;;;-0.19;37.88
63321;BME280;49449;48.800;9.534;2023-02-11T03:56:05;100494.56;;;-0.16;38.34
63321;BME280;49449;48.800;9.534;2023-02-11T03:58:35;100496.03;;;-0.11;37.80
63321;BME280;49449;48.800;9.534;2023-02-11T04:01:02;100491.75;;;-0.12;38.11
63321;BME280;49449;48.800;9.534;2023-02-11T04:03:34;100496.84;;;-0.11;38.30
63321;BME280;49449;48.800;9.534;2023-02-11T04:06:03;100500.38;;;-0.12;38.04
63321;BME280;49449;48.800;9.534;2023-02-11T04:08:31;100500.88;;;-0.07;37.61
63321;BME280;49449;48.800;9.534;2023-02-11T04:10:59;100495.94;;;-0.10;37.49
63321;BME280;49449;48.800;9.534;2023-02-11T04:13:27;100509.75;;;-0.09;38.19
63321;BME280;49449;48.800;9.534;2023-02-11T04:15:55;100503.72;;;-0.10;38.01
63321;BME280;49449;48.800;9.534;2023-02-11T04:18:23;100496.84;;;-0.11;37.49
63321;BME280;49449;48.800;9.534;2023-02-11T04:20:51;100501.75;;;-0.06;37.10
63321;BME280;49449;48.800;9.534;2023-02-11T04:23:20;100496.66;;;-0.08;37.96
63321;BME280;49449;48.800;9.534;2023-02-11T04:25:50;100505.16;;;-0.06;38.37
63321;BME280;49449;48.800;9.534;2023-02-11T04:28:18;100492.16;;;-0.06;38.74
63321;BME280;49449;48.800;9.534;2023-02-11T04:30:47;100498.78;;;-0.02;38.82
63321;BME280;49449;48.800;9.534;2023-02-11T04:33:15;100497.75;;;0.01;38.70
63321;BME280;49449;48.800;9.534;2023-02-11T04:35:43;100503.66;;;0.03;38.62
63321;BME280;49449;48.800;9.534;2023-02-11T04:38:11;100508.66;;;0.06;38.25
63321;BME280;49449;48.800;9.534;2023-02-11T04:40:40;100518.81;;;0.09;38.39
63321;BME280;49449;48.800;9.534;2023-02-11T04:43:08;100509.00;;;0.13;38.78
63321;BME280;49449;48.800;9.534;2023-02-11T04:45:36;100503.81;;;0.13;37.99
63321;BME280;49449;48.800;9.534;2023-02-11T04:48:04;100499.69;;;0.10;37.42
63321;BME280;49449;48.800;9.534;2023-02-11T04:50:32;100493.38;;;0.01;37.52
63321;BME280;49449;48.800;9.534;2023-02-11T04:52:59;100486.66;;;-0.01;37.99
63321;BME280;49449;48.800;9.534;2023-02-11T04:55:27;100484.66;;;0.02;38.05
63321;BME280;49449;48.800;9.534;2023-02-11T04:57:56;100473.78;;;0.09;38.25
63321;BME280;49449;48.800;9.534;2023-02-11T05:00:24;100474.19;;;0.15;38.32
63321;BME280;49449;48.800;9.534;2023-02-11T05:02:54;100477.59;;;0.16;38.51
63321;BME280;49449;48.800;9.534;2023-02-11T05:05:21;100473.97;;;0.18;38.44
63321;BME280;49449;48.800;9.534;2023-02-11T05:07:49;100467.69;;;0.21;38.50
63321;BME280;49449;48.800;9.534;2023-02-11T05:10:17;100475.28;;;0.24;38.85
63321;BME280;49449;48.800;9.534;2023-02-11T05:12:46;100463.00;;;0.26;38.92
63321;BME280;49449;48.800;9.534;2023-02-11T05:15:16;100454.88;;;0.31;38.32
63321;BME280;49449;48.800;9.534;2023-02-11T05:17:44;100455.69;;;0.31;38.62
63321;BME280;49449;48.800;9.534;2023-02-11T05:20:11;100447.88;;;0.31;38.14
63321;BME280;49449;48.800;9.534;2023-02-11T05:22:39;100446.00;;;0.33;38.05
63321;BME280;49449;48.800;9.534;2023-02-11T05:25:07;100445.06;;;0.34;38.47
63321;BME280;49449;48.800;9.534;2023-02-11T05:27:35;100450.00;;;0.37;38.65
63321;BME280;49449;48.800;9.534;2023-02-11T05:30:04;100431.59;;;0.40;38.95
63321;BME280;49449;48.800;9.534;2023-02-11T05:32:34;100427.34;;;0.39;38.96
63321;BME280;49449;48.800;9.534;2023-02-11T05:35:01;100437.59;;;0.41;39.57
63321;BME280;49449;48.800;9.534;2023-02-11T05:37:29;100439.38;;;0.40;38.99
63321;BME280;49449;48.800;9.534;2023-02-11T05:39:57;100436.78;;;0.40;39.54
63321;BME280;49449;48.800;9.534;2023-02-11T05:42:25;100435.00;;;0.41;39.48
63321;BME280;49449;48.800;9.534;2023-02-11T05:44:52;100435.75;;;0.43;39.07
63321;BME280;49449;48.800;9.534;2023-02-11T05:47:20;100433.84;;;0.45;38.70
63321;BME280;49449;48.800;9.534;2023-02-11T05:49:50;100443.41;;;0.45;38.55
63321;BME280;49449;48.800;9.534;2023-02-11T05:52:18;100439.75;;;0.47;38.52
63321;BME280;49449;48.800;9.534;2023-02-11T05:54:46;100442.59;;;0.44;39.05
63321;BME280;49449;48.800;9.534;2023-02-11T05:57:14;100429.34;;;0.47;39.00
63321;BME280;49449;48.800;9.534;2023-02-11T05:59:42;100427.47;;;0.49;38.53
63321;BME280;49449;48.800;9.534;2023-02-11T06:02:10;100426.53;;;0.50;38.80
63321;BME280;49449;48.800;9.534;2023-02-11T06:04:38;100432.56;;;0.51;39.00
63321;BME280;49449;48.800;9.534;2023-02-11T06:07:08;100435.75;;;0.54;38.46
63321;BME280;49449;48.800;9.534;2023-02-11T06:09:35;100451.25;;;0.56;38.89
63321;BME280;49449;48.800;9.534;2023-02-11T06:12:03;100451.97;;;0.58;39.26
63321;BME280;49449;48.800;9.534;2023-02-11T06:14:31;100456.56;;;0.54;39.88
63321;BME280;49449;48.800;9.534;2023-02-11T06:17:00;100450.28;;;0.57;38.96
63321;BME280;49449;48.800;9.534;2023-02-11T06:19:27;100446.53;;;0.61;37.77
63321;BME280;49449;48.800;9.534;2023-02-11T06:21:56;100456.22;;;0.59;38.79
63321;BME280;49449;48.800;9.534;2023-02-11T06:24:25;100464.25;;;0.56;39.38
63321;BME280;49449;48.800;9.534;2023-02-11T06:27:16;100469.09;;;0.60;38.78
63321;BME280;49449;48.800;9.534;2023-02-11T06:29:44;100463.78;;;0.62;38.56
63321;BME280;49449;48.800;9.534;2023-02-11T06:32:12;100457.03;;;0.59;37.72
63321;BME280;49449;48.800;9.534;2023-02-11T06:35:00;100449.94;;;0.50;37.99
63321;BME280;49449;48.800;9.534;2023-02-11T06:37:28;100449.91;;;0.39;37.65
63321;BME280;49449;48.800;9.534;2023-02-11T06:39:57;100459.16;;;0.43;38.58
63321;BME280;49449;48.800;9.534;2023-02-11T06:42:25;100454.53;;;0.47;39.02
63321;BME280;49449;48.800;9.534;2023-02-11T06:44:52;100446.50;;;0.50;39.30
63321;BME280;49449;48.800;9.534;2023-02-11T06:47:20;100448.75;;;0.54;39.31
63321;BME280;49449;48.800;9.534;2023-02-11T06:49:48;100450.06;;;0.60;39.29
63321;BME280;49449;48.800;9.534;2023-02-11T06:52:15;100456.81;;;0.63;39.73
63321;BME280;49449;48.800;9.534;2023-02-11T06:54:43;100468.75;;;0.65;39.93
63321;BME280;49449;48.800;9.534;2023-02-11T06:57:12;100460.84;;;0.67;39.66
63321;BME280;49449;48.800;9.534;2023-02-11T06:59:40;100462.63;;;0.66;39.16
63321;BME280;49449;48.800;9.534;2023-02-11T07:02:08;100470.06;;;0.71;39.58
63321;BME280;49449;48.800;9.534;2023-02-11T07:04:36;100464.03;;;0.70;40.26
63321;BME280;49449;48.800;9.534;2023-02-11T07:07:04;100474.22;;;0.73;39.60
63321;BME280;49449;48.800;9.534;2023-02-11T07:09:32;100472.22;;;0.77;39.14
63321;BME280;49449;48.800;9.534;2023-02-11T07:11:59;100467.72;;;0.79;39.71
63321;BME280;49449;48.800;9.534;2023-02-11T07:14:29;100470.31;;;0.79;39.35
63321;BME280;49449;48.800;9.534;2023-02-11T07:16:56;100466.53;;;0.83;39.21
63321;BME280;49449;48.800;9.534;2023-02-11T07:19:24;100461.91;;;0.87;39.49
63321;BME280;49449;48.800;9.534;2023-02-11T07:21:52;100450.81;;;0.85;38.49
63321;BME280;49449;48.800;9.534;2023-02-11T07:24:20;100445.72;;;0.83;39.01
63321;BME280;49449;48.800;9.534;2023-02-11T07:26:48;100438.28;;;0.90;39.19
63321;BME280;49449;48.800;9.534;2023-02-11T07:29:16;100426.66;;;0.94;38.77
63321;BME280;49449;48.800;9.534;2023-02-11T07:31:45;100438.16;;;1.03;38.69
63321;BME280;49449;48.800;9.534;2023-02-11T07:34:13;100433.41;;;1.08;38.97
63321;BME280;49449;48.800;9.534;2023-02-11T07:36:41;100442.78;;;1.10;38.94
63321;BME280;49449;48.800;9.534;2023-02-11T07:39:10;100449.16;;;1.18;38.67
63321;BME280;49449;48.800;9.534;2023-02-11T07:41:40;100456.59;;;1.22;38.80
63321;BME280;49449;48.800;9.534;2023-02-11T07:44:08;100459.78;;;1.26;39.28
63321;BME280;49449;48.800;9.534;2023-02-11T07:46:36;100466.78;;;1.37;38.91
63321;BME280;49449;48.800;9.534;2023-02-11T07:49:09;100457.31;;;1.47;38.28
63321;BME280;49449;48.800;9.534;2023-02-11T07:51:37;100452.84;;;1.49;38.94
63321;BME280;49449;48.800;9.534;2023-02-11T07:54:05;100453.41;;;1.52;38.23
63321;BME280;49449;48.800;9.534;2023-02-11T07:56:33;100447.59;;;1.60;37.73
63321;BME280;49449;48.800;9.534;2023-02-11T07:59:02;100449.09;;;1.63;38.01
63321;BME280;49449;48.800;9.534;2023-02-11T08:01:29;100442.03;;;1.65;37.89
63321;BME280;49449;48.800;9.534;2023-02-11T08:03:59;100453.84;;;1.69;37.00
63321;BME280;49449;48.800;9.534;2023-02-11T08:06:31;100454.31;;;1.74;37.73
63321;BME280;49449;48.800;9.534;2023-02-11T08:09:03;100458.31;;;1.78;37.39
63321;BME280;49449;48.800;9.534;2023-02-11T08:11:31;100461.38;;;1.83;37.54
63321;BME280;49449;48.800;9.534;2023-02-11T08:13:59;100463.50;;;1.89;38.46
63321;BME280;49449;48.800;9.534;2023-02-11T08:16:29;100468.53;;;2.02;38.59
63321;BME280;49449;48.800;9.534;2023-02-11T08:18:59;100454.06;;;2.09;37.26
63321;BME280;49449;48.800;9.534;2023-02-11T08:21:31;100453.69;;;2.14;37.25
63321;BME280;49449;48.800;9.534;2023-02-11T08:24:00;100453.69;;;2.14;37.96
63321;BME280;49449;48.800;9.534;2023-02-11T08:26:29;100463.84;;;2.17;37.67
63321;BME280;49449;48.800;9.534;2023-02-11T08:29:02;100472.13;;;2.22;38.65
63321;BME280;49449;48.800;9.534;2023-02-11T08:31:32;100473.78;;;2.23;37.91
63321;BME280;49449;48.800;9.534;2023-02-11T08:34:00;100476.84;;;2.28;39.10
63321;BME280;49449;48.800;9.534;2023-02-11T08:36:30;100476.59;;;2.32;41.18
63321;BME280;49449;48.800;9.534;2023-02-11T08:39:01;100474.88;;;2.42;38.51
63321;BME280;49449;48.800;9.534;2023-02-11T08:41:43;100471.38;;;2.53;37.62
63321;BME280;49449;48.800;9.534;2023-02-11T08:44:12;100468.97;;;2.61;37.64
63321;BME280;49449;48.800;9.534;2023-02-11T08:46:40;100465.13;;;2.65;36.69
63321;BME280;49449;48.800;9.534;2023-02-11T08:49:07;100463.03;;;2.80;36.10
63321;BME280;49449;48.800;9.534;2023-02-11T08:51:35;100466.84;;;2.76;36.91
63321;BME280;49449;48.800;9.534;2023-02-11T08:54:05;100457.63;;;2.72;36.26
63321;BME280;49449;48.800;9.534;2023-02-11T08:56:35;100449.53;;;2.75;37.05
63321;BME280;49449;48.800;9.534;2023-02-11T08:59:04;100451.63;;;2.81;36.50
63321;BME280;49449;48.800;9.534;2023-02-11T09:01:32;100453.16;;;2.83;36.75
63321;BME280;49449;48.800;9.534;2023-02-11T09:03:59;100462.03;;;3.02;37.16
63321;BME280;49449;48.800;9.534;2023-02-11T09:06:28;100456.59;;;3.24;36.76
63321;BME280;49449;48.800;9.534;2023-02-11T09:08:57;100446.72;;;4.17;35.13
63321;BME280;49449;48.800;9.534;2023-02-11T09:11:28;100446.72;;;4.17;35.28
63321;BME280;49449;48.800;9.534;2023-02-11T09:13:56;100438.47;;;4.12;35.55
63321;BME280;49449;48.800;9.534;2023-02-11T09:16:26;100443.34;;;5.39;33.71
63321;BME280;49449;48.800;9.534;2023-02-11T09:18:55;100431.47;;;6.25;32.41
63321;BME280;49449;48.800;9.534;2023-02-11T09:21:23;100430.13;;;6.39;32.97
63321;BME280;49449;48.800;9.534;2023-02-11T09:23:52;100423.56;;;6.61;32.44
63321;BME280;49449;48.800;9.534;2023-02-11T09:26:22;100420.81;;;6.71;32.53
63321;BME280;49449;48.800;9.534;2023-02-11T09:28:51;100421.31;;;6.74;31.90
63321;BME280;49449;48.800;9.534;2023-02-11T09:31:21;100412.47;;;6.75;32.54
63321;BME280;49449;48.800;9.534;2023-02-11T09:33:51;100411.81;;;6.81;31.96
63321;BME280;49449;48.800;9.534;2023-02-11T09:36:20;100412.84;;;6.89;31.72
63321;BME280;49449;48.800;9.534;2023-02-11T09:38:50;100418.66;;;7.00;31.94
63321;BME280;49449;48.800;9.534;2023-02-11T09:41:32;100411.47;;;7.11;31.15
63321;BME280;49449;48.800;9.534;2023-02-11T09:44:05;100418.28;;;7.30;30.96
63321;BME280;49449;48.800;9.534;2023-02-11T09:46:36;100415.03;;;7.44;31.15
63321;BME280;49449;48.800;9.534;2023-02-11T09:49:06;100419.84;;;7.65;30.71
63321;BME280;49449;48.800;9.534;2023-02-11T09:51:42;100424.13;;;7.74;31.55
63321;BME280;49449;48.800;9.534;2023-02-11T09:54:17;100428.56;;;7.66;30.20
63321;BME280;49449;48.800;9.534;2023-02-11T09:56:47;100440.75;;;7.67;29.86
63321;BME280;49449;48.800;9.534;2023-02-11T09:59:16;100440.09;;;7.73;29.37
63321;BME280;49449;48.800;9.534;2023-02-11T10:01:48;100445.03;;;7.76;29.96
63321;BME280;49449;48.800;9.534;2023-02-11T10:04:26;100443.88;;;7.78;28.72
63321;BME280;49449;48.800;9.534;2023-02-11T10:07:01;100432.34;;;7.71;30.00
63321;BME280;49449;48.800;9.534;2023-02-11T10:09:46;100430.56;;;7.72;28.67
63321;BME280;49449;48.800;9.534;2023-02-11T10:12:27;100439.09;;;7.66;28.62
63321;BME280;49449;48.800;9.534;2023-02-11T10:15:16;100431.50;;;7.63;29.80
63321;BME280;49449;48.800;9.534;2023-02-11T10:18:02;100434.28;;;7.53;28.70
63321;BME280;49449;48.800;9.534;2023-02-11T10:20:36;100447.09;;;7.48;28.94
63321;BME280;49449;48.800;9.534;2023-02-11T10:23:09;100451.53;;;7.47;28.66
63321;BME280;49449;48.800;9.534;2023-02-11T10:25:42;100448.41;;;7.52;28.80
63321;BME280;49449;48.800;9.534;2023-02-11T10:28:12;100444.78;;;7.53;28.89
63321;BME280;49449;48.800;9.534;2023-02-11T10:30:42;100445.97;;;7.58;28.41
63321;BME280;49449;48.800;9.534;2023-02-11T10:33:15;100436.59;;;7.56;28.19
63321;BME280;49449;48.800;9.534;2023-02-11T10:35:46;100433.78;;;7.49;27.87
63321;BME280;49449;48.800;9.534;2023-02-11T10:38:14;100442.06;;;7.71;27.52
63321;BME280;49449;48.800;9.534;2023-02-11T10:40:42;100430.03;;;7.60;27.62
63321;BME280;49449;48.800;9.534;2023-02-11T10:43:11;100433.34;;;7.62;27.86
63321;BME280;49449;48.800;9.534;2023-02-11T10:45:44;100430.31;;;7.57;27.88
63321;BME280;49449;48.800;9.534;2023-02-11T10:48:35;100417.50;;;7.54;27.66
63321;BME280;49449;48.800;9.534;2023-02-11T10:51:07;100411.47;;;7.62;28.08
63321;BME280;49449;48.800;9.534;2023-02-11T10:53:40;100406.31;;;7.52;28.03
63321;BME280;49449;48.800;9.534;2023-02-11T10:56:10;100404.34;;;7.46;28.47
63321;BME280;49449;48.800;9.534;2023-02-11T10:58:41;100386.88;;;7.36;28.57
63321;BME280;49449;48.800;9.534;2023-02-11T11:01:12;100390.19;;;7.38;29.10
63321;BME280;49449;48.800;9.534;2023-02-11T11:03:51;100397.53;;;7.18;29.53
63321;BME280;49449;48.800;9.534;2023-02-11T11:06:28;100391.56;;;7.08;29.54
63321;BME280;49449;48.800;9.534;2023-02-11T11:08:57;100383.09;;;7.31;29.57
63321;BME280;49449;48.800;9.534;2023-02-11T11:11:25;100379.06;;;7.86;30.06
63321;BME280;49449;48.800;9.534;2023-02-11T11:13:56;100382.06;;;8.07;29.66
63321;BME280;49449;48.800;9.534;2023-02-11T11:16:27;100377.75;;;8.06;29.17
63321;BME280;49449;48.800;9.534;2023-02-11T11:19:13;100371.59;;;8.39;29.41
63321;BME280;49449;48.800;9.534;2023-02-11T11:21:43;100365.09;;;8.02;28.92
63321;BME280;49449;48.800;9.534;2023-02-11T11:24:17;100367.72;;;8.10;28.95
63321;BME280;49449;48.800;9.534;2023-02-11T11:26:48;100368.53;;;8.27;28.97
63321;BME280;49449;48.800;9.534;2023-02-11T11:29:19;100377.06;;;8.29;28.85
63321;BME280;49449;48.800;9.534;2023-02-11T11:31:54;100369.25;;;8.60;28.92
63321;BME280;49449;48.800;9.534;2023-02-11T11:34:29;100369.25;;;8.60;28.69
63321;BME280;49449;48.800;9.534;2023-02-11T11:36:58;100371.94;;;8.91;28.61
63321;BME280;49449;48.800;9.534;2023-02-11T11:39:29;100362.13;;;9.17;29.19
63321;BME280;49449;48.800;9.534;2023-02-11T11:41:59;100355.63;;;9.51;28.53
63321;BME280;49449;48.800;9.534;2023-02-11T11:44:29;100358.31;;;9.65;28.47
63321;BME280;49449;48.800;9.534;2023-02-11T11:47:30;100356.16;;;9.92;29.18
63321;BME280;49449;48.800;9.534;2023-02-11T11:50:24;100354.91;;;10.03;28.82
63321;BME280;49449;48.800;9.534;2023-02-11T11:52:59;100352.81;;;10.13;28.59
63321;BME280;49449;48.800;9.534;2023-02-11T11:55:33;100358.47;;;10.10;26.66
63321;BME280;49449;48.800;9.534;2023-02-11T11:58:03;100350.91;;;10.07;27.56
63321;BME280;49449;48.800;9.534;2023-02-11T12:00:40;100352.00;;;10.28;27.71
63321;BME280;49449;48.800;9.534;2023-02-11T12:03:42;100351.56;;;10.54;27.95
63321;BME280;49449;48.800;9.534;2023-02-11T12:06:26;100349.56;;;10.71;26.38
63321;BME280;49449;48.800;9.534;2023-02-11T12:09:06;100348.00;;;10.91;27.71
63321;BME280;49449;48.800;9.534;2023-02-11T12:11:49;100360.44;;;11.12;27.30
63321;BME280;49449;48.800;9.534;2023-02-11T12:14:26;100353.69;;;11.10;27.84
63321;BME280;49449;48.800;9.534;2023-02-11T12:17:02;100355.44;;;11.03;28.53
63321;BME280;49449;48.800;9.534;2023-02-11T12:19:50;100361.94;;;11.00;27.82
63321;BME280;49449;48.800;9.534;2023-02-11T12:22:36;100362.59;;;10.87;29.54
63321;BME280;49449;48.800;9.534;2023-02-11T12:25:20;100360.03;;;10.79;28.07
63321;BME280;49449;48.800;9.534;2023-02-11T12:28:00;100367.06;;;10.72;28.40
63321;BME280;49449;48.800;9.534;2023-02-11T12:33:59;100367.97;;;10.49;31.72
63321;BME280;49449;48.800;9.534;2023-02-11T12:36:44;100367.09;;;10.04;30.84
63321;BME280;49449;48.800;9.534;2023-02-11T12:39:26;100366.28;;;10.03;31.09
63321;BME280;49449;48.800;9.534;2023-02-11T12:42:10;100354.91;;;9.80;29.54
63321;BME280;49449;48.800;9.534;2023-02-11T12:45:15;100363.38;;;9.75;30.98
63321;BME280;49449;48.800;9.534;2023-02-11T12:47:54;100352.34;;;9.72;31.25
63321;BME280;49449;48.800;9.534;2023-02-11T12:50:29;100347.72;;;9.74;30.83
63321;BME280;49449;48.800;9.534;2023-02-11T12:53:14;100342.25;;;9.75;35.04
63321;BME280;49449;48.800;9.534;2023-02-11T12:55:56;100341.25;;;9.76;31.90
63321;BME280;49449;48.800;9.534;2023-02-11T12:58:29;100341.06;;;9.78;30.89
63321;BME280;49449;48.800;9.534;2023-02-11T13:01:15;100340.59;;;9.74;30.99
63321;BME280;49449;48.800;9.534;2023-02-11T13:03:47;100334.56;;;9.65;33.38
63321;BME280;49449;48.800;9.534;2023-02-11T13:06:21;100330.88;;;9.75;31.81
63321;BME280;49449;48.800;9.534;2023-02-11T13:08:56;100330.88;;;9.75;34.28
63321;BME280;49449;48.800;9.534;2023-02-11T13:11:28;100324.19;;;9.64;32.30
63321;BME280;49449;48.800;9.534;2023-02-11T13:14:02;100317.69;;;9.52;33.02
63321;BME280;49449;48.800;9.534;2023-02-11T13:16:34;100318.69;;;9.51;33.06
63321;BME280;49449;48.800;9.534;2023-02-11T13:19:13;100323.63;;;9.54;32.18
63321;BME280;49449;48.800;9.534;2023-02-11T13:22:02;100313.06;;;9.54;33.01
63321;BME280;49449;48.800;9.534;2023-02-11T13:24:40;100315.25;;;9.50;33.51
63321;BME280;49449;48.800;9.534;2023-02-11T13:27:20;100314.97;;;9.45;32.69
63321;BME280;49449;48.800;9.534;2023-02-11T13:30:16;100316.28;;;9.41;34.22
63321;BME280;49449;48.800;9.534;2023-02-11T13:33:16;100316.84;;;9.36;33.79